Red Lodge, Montana
Current Conditions -  °F | °C
As of 4:55 AM on Thursday 23 Oct 2014 (Local Time) from KPOY Reporting Station
Clear Clear  
Wind Chill: 39°   Ceiling: Unl
Heat Index: 45°   Visibility: 10mi
Dew Point: 19°   Wind: 10mph
Humidity: 37%   Direction: 130°SE
Pressure: 30"   Gusts: NA
Location:  45.19°N, 109.25°W
Report Text: KPOY 231055Z AUTO 13009KT 10SM CLR 07/M07 A3000 RMK AO2
Loading
Personal Weather Stations






























Interactive Weather Map
Tropical Storm Tracking
New forecast layout! Learn more

10-Day Weather Forecast

Advertisements
Track Severe Weather on mobile